sensor_id;sensor_type;location;lat;lon;timestamp;temperature;humidity
9209;DHT22;4639;48.862;9.188;2024-01-10T00:01:34;-2.40;99.90
9209;DHT22;4639;48.862;9.188;2024-01-10T00:04:00;-2.50;99.90
9209;DHT22;4639;48.862;9.188;2024-01-10T00:06:26;-2.50;99.90
9209;DHT22;4639;48.862;9.188;2024-01-10T00:08:51;-2.60;99.90
9209;DHT22;4639;48.862;9.188;2024-01-10T00:11:17;-2.50;99.90
9209;DHT22;4639;48.862;9.188;2024-01-10T00:13:42;-2.50;99.90
9209;DHT22;4639;48.862;9.188;2024-01-10T00:16:08;-2.40;99.90
9209;DHT22;4639;48.862;9.188;2024-01-10T00:18:34;-2.40;99.90
9209;DHT22;4639;48.862;9.188;2024-01-10T00:21:00;-2.40;99.90
9209;DHT22;4639;48.862;9.188;2024-01-10T00:23:25;-2.20;99.90
9209;DHT22;4639;48.862;9.188;2024-01-10T00:25:51;-2.30;99.90
9209;DHT22;4639;48.862;9.188;2024-01-10T00:28:17;-2.30;99.90
9209;DHT22;4639;48.862;9.188;2024-01-10T00:30:44;-2.30;99.90
9209;DHT22;4639;48.862;9.188;2024-01-10T00:33:10;-2.30;99.90
9209;DHT22;4639;48.862;9.188;2024-01-10T00:35:36;-2.30;99.90
9209;DHT22;4639;48.862;9.188;2024-01-10T00:38:02;-2.30;99.90
9209;DHT22;4639;48.862;9.188;2024-01-10T00:40:28;-2.30;99.90
9209;DHT22;4639;48.862;9.188;2024-01-10T00:42:53;-2.20;99.90
9209;DHT22;4639;48.862;9.188;2024-01-10T00:45:19;-2.20;99.90
9209;DHT22;4639;48.862;9.188;2024-01-10T00:47:45;-2.20;99.90
9209;DHT22;4639;48.862;9.188;2024-01-10T00:50:10;-2.20;99.90
9209;DHT22;4639;48.862;9.188;2024-01-10T00:52:36;-2.30;99.90
9209;DHT22;4639;48.862;9.188;2024-01-10T00:55:02;-2.20;99.90
9209;DHT22;4639;48.862;9.188;2024-01-10T00:57:27;-2.20;99.90
9209;DHT22;4639;48.862;9.188;2024-01-10T00:59:53;-2.20;99.90
9209;DHT22;4639;48.862;9.188;2024-01-10T01:02:18;-2.20;99.90
9209;DHT22;4639;48.862;9.188;2024-01-10T01:04:44;-2.20;99.90
9209;DHT22;4639;48.862;9.188;2024-01-10T01:07:09;-2.20;99.90
9209;DHT22;4639;48.862;9.188;2024-01-10T01:09:35;-2.20;99.90
9209;DHT22;4639;48.862;9.188;2024-01-10T01:12:00;-2.20;99.90
9209;DHT22;4639;48.862;9.188;2024-01-10T01:14:26;-2.20;99.90
9209;DHT22;4639;48.862;9.188;2024-01-10T01:16:52;-2.20;99.90
9209;DHT22;4639;48.862;9.188;2024-01-10T01:19:18;-2.20;99.90
9209;DHT22;4639;48.862;9.188;2024-01-10T01:21:43;-2.20;99.90
9209;DHT22;4639;48.862;9.188;2024-01-10T01:24:09;-2.20;99.90
9209;DHT22;4639;48.862;9.188;2024-01-10T01:26:35;-2.10;99.90
9209;DHT22;4639;48.862;9.188;2024-01-10T01:29:00;-2.10;99.90
9209;DHT22;4639;48.862;9.188;2024-01-10T01:31:26;-2.10;99.90
9209;DHT22;4639;48.862;9.188;2024-01-10T01:33:52;-2.10;99.90
9209;DHT22;4639;48.862;9.188;2024-01-10T01:36:17;-2.10;99.90
9209;DHT22;4639;48.862;9.188;2024-01-10T01:38:43;-2.20;99.90
9209;DHT22;4639;48.862;9.188;2024-01-10T01:41:09;-2.20;99.90
9209;DHT22;4639;48.862;9.188;2024-01-10T01:43:35;-2.20;99.90
9209;DHT22;4639;48.862;9.188;2024-01-10T01:46:01;-2.20;99.90
9209;DHT22;4639;48.862;9.188;2024-01-10T01:48:28;-2.30;99.90
9209;DHT22;4639;48.862;9.188;2024-01-10T01:50:59;-2.30;99.90
9209;DHT22;4639;48.862;9.188;2024-01-10T01:53:26;-2.20;99.90
9209;DHT22;4639;48.862;9.188;2024-01-10T01:55:52;-2.30;99.90
9209;DHT22;4639;48.862;9.188;2024-01-10T01:58:19;-2.30;99.90
9209;DHT22;4639;48.862;9.188;2024-01-10T02:00:46;-2.20;99.90
9209;DHT22;4639;48.862;9.188;2024-01-10T02:03:11;-2.20;99.90
9209;DHT22;4639;48.862;9.188;2024-01-10T02:05:37;-2.10;99.90
9209;DHT22;4639;48.862;9.188;2024-01-10T02:08:03;-2.30;99.90
9209;DHT22;4639;48.862;9.188;2024-01-10T02:10:28;-2.30;99.90
9209;DHT22;4639;48.862;9.188;2024-01-10T02:12:54;-2.30;99.90
9209;DHT22;4639;48.862;9.188;2024-01-10T02:15:20;-2.20;99.90
9209;DHT22;4639;48.862;9.188;2024-01-10T02:17:46;-2.30;99.90
9209;DHT22;4639;48.862;9.188;2024-01-10T02:20:13;-2.30;99.90
9209;DHT22;4639;48.862;9.188;2024-01-10T02:22:39;-2.20;99.90
9209;DHT22;4639;48.862;9.188;2024-01-10T02:25:13;-2.20;99.90
9209;DHT22;4639;48.862;9.188;2024-01-10T02:27:39;-2.20;99.90
9209;DHT22;4639;48.862;9.188;2024-01-10T02:30:08;-2.10;99.90
9209;DHT22;4639;48.862;9.188;2024-01-10T02:32:34;-2.20;99.90
9209;DHT22;4639;48.862;9.188;2024-01-10T02:35:00;-2.20;99.90
9209;DHT22;4639;48.862;9.188;2024-01-10T02:37:26;-2.30;99.90
9209;DHT22;4639;48.862;9.188;2024-01-10T02:39:51;-2.40;99.90
9209;DHT22;4639;48.862;9.188;2024-01-10T02:42:17;-2.40;99.90
9209;DHT22;4639;48.862;9.188;2024-01-10T02:44:43;-2.40;99.90
9209;DHT22;4639;48.862;9.188;2024-01-10T02:47:09;-2.30;99.90
9209;DHT22;4639;48.862;9.188;2024-01-10T02:49:35;-2.30;99.90
9209;DHT22;4639;48.862;9.188;2024-01-10T02:52:01;-2.40;99.90
9209;DHT22;4639;48.862;9.188;2024-01-10T02:54:26;-2.40;99.90
9209;DHT22;4639;48.862;9.188;2024-01-10T02:56:52;-2.50;99.90
9209;DHT22;4639;48.862;9.188;2024-01-10T02:59:18;-2.50;99.90
9209;DHT22;4639;48.862;9.188;2024-01-10T03:01:43;-2.40;99.90
9209;DHT22;4639;48.862;9.188;2024-01-10T03:04:09;-2.40;99.90
9209;DHT22;4639;48.862;9.188;2024-01-10T03:06:35;-2.40;99.90
9209;DHT22;4639;48.862;9.188;2024-01-10T03:09:00;-2.40;99.90
9209;DHT22;4639;48.862;9.188;2024-01-10T03:11:26;-2.40;99.90
9209;DHT22;4639;48.862;9.188;2024-01-10T03:14:03;-2.40;99.90
9209;DHT22;4639;48.862;9.188;2024-01-10T03:16:30;-2.40;99.90
9209;DHT22;4639;48.862;9.188;2024-01-10T03:18:56;-2.40;99.90
9209;DHT22;4639;48.862;9.188;2024-01-10T03:21:21;-2.40;99.90
9209;DHT22;4639;48.862;9.188;2024-01-10T03:23:56;-2.40;99.90
9209;DHT22;4639;48.862;9.188;2024-01-10T03:26:22;-2.30;99.90
9209;DHT22;4639;48.862;9.188;2024-01-10T03:28:48;-2.40;99.90
9209;DHT22;4639;48.862;9.188;2024-01-10T03:31:14;-2.30;99.90
9209;DHT22;4639;48.862;9.188;2024-01-10T03:33:40;-2.40;99.90
9209;DHT22;4639;48.862;9.188;2024-01-10T03:36:06;-2.40;99.90
9209;DHT22;4639;48.862;9.188;2024-01-10T03:38:32;-2.40;99.90
9209;DHT22;4639;48.862;9.188;2024-01-10T03:40:57;-2.40;99.90
9209;DHT22;4639;48.862;9.188;2024-01-10T03:43:23;-2.40;99.90
9209;DHT22;4639;48.862;9.188;2024-01-10T03:45:49;-2.30;99.90
9209;DHT22;4639;48.862;9.188;2024-01-10T03:48:14;-2.30;99.90
9209;DHT22;4639;48.862;9.188;2024-01-10T03:50:40;-2.30;99.90
9209;DHT22;4639;48.862;9.188;2024-01-10T03:53:05;-2.30;99.90
9209;DHT22;4639;48.862;9.188;2024-01-10T03:55:31;-2.30;99.90
9209;DHT22;4639;48.862;9.188;2024-01-10T03:57:57;-2.20;99.90
9209;DHT22;4639;48.862;9.188;2024-01-10T04:00:23;-2.20;99.90
9209;DHT22;4639;48.862;9.188;2024-01-10T04:02:48;-2.30;99.90
9209;DHT22;4639;48.862;9.188;2024-01-10T04:05:14;-2.30;99.90
9209;DHT22;4639;48.862;9.188;2024-01-10T04:07:40;-2.30;99.90
9209;DHT22;4639;48.862;9.188;2024-01-10T04:10:09;-2.20;99.90
9209;DHT22;4639;48.862;9.188;2024-01-10T04:12:42;-2.30;99.90
9209;DHT22;4639;48.862;9.188;2024-01-10T04:15:08;-2.30;99.90
9209;DHT22;4639;48.862;9.188;2024-01-10T04:17:34;-2.20;99.90
9209;DHT22;4639;48.862;9.188;2024-01-10T04:19:59;-2.30;99.90
9209;DHT22;4639;48.862;9.188;2024-01-10T04:22:25;-2.20;99.90
9209;DHT22;4639;48.862;9.188;2024-01-10T04:24:51;-2.20;99.90
9209;DHT22;4639;48.862;9.188;2024-01-10T04:27:16;-2.20;99.90
9209;DHT22;4639;48.862;9.188;2024-01-10T04:29:43;-2.20;99.90
9209;DHT22;4639;48.862;9.188;2024-01-10T04:32:09;-2.40;99.90
9209;DHT22;4639;48.862;9.188;2024-01-10T04:34:35;-2.40;99.90
9209;DHT22;4639;48.862;9.188;2024-01-10T04:37:00;-2.40;99.90
9209;DHT22;4639;48.862;9.188;2024-01-10T04:39:26;-2.40;99.90
9209;DHT22;4639;48.862;9.188;2024-01-10T04:41:51;-2.40;99.90
9209;DHT22;4639;48.862;9.188;2024-01-10T04:44:17;-2.40;99.90
9209;DHT22;4639;48.862;9.188;2024-01-10T04:46:43;-2.50;99.90
9209;DHT22;4639;48.862;9.188;2024-01-10T04:49:08;-2.40;99.90
9209;DHT22;4639;48.862;9.188;2024-01-10T04:51:35;-2.40;99.90
9209;DHT22;4639;48.862;9.188;2024-01-10T04:54:00;-2.30;99.90
9209;DHT22;4639;48.862;9.188;2024-01-10T04:56:26;-2.40;99.90
9209;DHT22;4639;48.862;9.188;2024-01-10T04:58:51;-2.40;99.90
9209;DHT22;4639;48.862;9.188;2024-01-10T05:01:18;-2.40;99.90
9209;DHT22;4639;48.862;9.188;2024-01-10T05:03:43;-2.40;99.90
9209;DHT22;4639;48.862;9.188;2024-01-10T05:06:09;-2.30;99.90
9209;DHT22;4639;48.862;9.188;2024-01-10T05:08:34;-2.20;99.90
9209;DHT22;4639;48.862;9.188;2024-01-10T05:11:00;-2.20;99.90
9209;DHT22;4639;48.862;9.188;2024-01-10T05:13:26;-2.20;99.90
9209;DHT22;4639;48.862;9.188;2024-01-10T05:15:51;-2.20;99.90
9209;DHT22;4639;48.862;9.188;2024-01-10T05:18:18;-2.30;99.90
9209;DHT22;4639;48.862;9.188;2024-01-10T05:20:44;-2.20;99.90
9209;DHT22;4639;48.862;9.188;2024-01-10T05:23:10;-2.30;99.90
9209;DHT22;4639;48.862;9.188;2024-01-10T05:25:36;-2.10;99.90
9209;DHT22;4639;48.862;9.188;2024-01-10T05:28:01;-2.20;99.90
9209;DHT22;4639;48.862;9.188;2024-01-10T05:30:27;-2.20;99.90
9209;DHT22;4639;48.862;9.188;2024-01-10T05:32:52;-2.20;99.90
9209;DHT22;4639;48.862;9.188;2024-01-10T05:35:18;-2.10;99.90
9209;DHT22;4639;48.862;9.188;2024-01-10T05:37:44;-2.10;99.90
9209;DHT22;4639;48.862;9.188;2024-01-10T05:40:10;-2.10;99.90
9209;DHT22;4639;48.862;9.188;2024-01-10T05:42:35;-2.10;99.90
9209;DHT22;4639;48.862;9.188;2024-01-10T05:45:04;-2.10;99.90
9209;DHT22;4639;48.862;9.188;2024-01-10T05:47:31;-2.10;99.90
9209;DHT22;4639;48.862;9.188;2024-01-10T05:49:56;-2.20;99.90
9209;DHT22;4639;48.862;9.188;2024-01-10T05:52:22;-2.30;99.90
9209;DHT22;4639;48.862;9.188;2024-01-10T05:54:48;-2.40;99.90
9209;DHT22;4639;48.862;9.188;2024-01-10T05:57:14;-2.40;99.90
9209;DHT22;4639;48.862;9.188;2024-01-10T05:59:40;-2.40;99.90
9209;DHT22;4639;48.862;9.188;2024-01-10T06:02:06;-2.40;99.90
9209;DHT22;4639;48.862;9.188;2024-01-10T06:04:31;-2.40;99.90
9209;DHT22;4639;48.862;9.188;2024-01-10T06:06:58;-2.30;99.90
9209;DHT22;4639;48.862;9.188;2024-01-10T06:09:24;-2.30;99.90
9209;DHT22;4639;48.862;9.188;2024-01-10T06:11:49;-2.30;99.90
9209;DHT22;4639;48.862;9.188;2024-01-10T06:14:16;-2.20;99.90
9209;DHT22;4639;48.862;9.188;2024-01-10T06:16:41;-2.20;99.90
9209;DHT22;4639;48.862;9.188;2024-01-10T06:19:07;-2.20;99.90
9209;DHT22;4639;48.862;9.188;2024-01-10T06:21:32;-2.20;99.90
9209;DHT22;4639;48.862;9.188;2024-01-10T06:23:58;-2.20;99.90
9209;DHT22;4639;48.862;9.188;2024-01-10T06:26:23;-2.20;99.90
9209;DHT22;4639;48.862;9.188;2024-01-10T06:28:49;-2.20;99.90
9209;DHT22;4639;48.862;9.188;2024-01-10T06:31:17;-2.20;99.90
9209;DHT22;4639;48.862;9.188;2024-01-10T06:33:43;-2.20;99.90
9209;DHT22;4639;48.862;9.188;2024-01-10T06:36:09;-2.20;99.90
9209;DHT22;4639;48.862;9.188;2024-01-10T06:38:34;-2.20;99.90
9209;DHT22;4639;48.862;9.188;2024-01-10T06:41:00;-2.30;99.90
9209;DHT22;4639;48.862;9.188;2024-01-10T06:43:25;-2.30;99.90
9209;DHT22;4639;48.862;9.188;2024-01-10T06:45:51;-2.30;99.90
9209;DHT22;4639;48.862;9.188;2024-01-10T06:48:16;-2.30;99.90
9209;DHT22;4639;48.862;9.188;2024-01-10T06:50:44;-2.40;99.90
9209;DHT22;4639;48.862;9.188;2024-01-10T06:53:10;-2.40;99.90
9209;DHT22;4639;48.862;9.188;2024-01-10T06:55:35;-2.40;99.90
9209;DHT22;4639;48.862;9.188;2024-01-10T06:58:01;-2.20;99.90
9209;DHT22;4639;48.862;9.188;2024-01-10T07:00:28;-2.40;99.90
9209;DHT22;4639;48.862;9.188;2024-01-10T07:02:53;-2.40;99.90
9209;DHT22;4639;48.862;9.188;2024-01-10T07:05:19;-2.40;99.90
9209;DHT22;4639;48.862;9.188;2024-01-10T07:07:45;-2.30;99.90
9209;DHT22;4639;48.862;9.188;2024-01-10T07:10:10;-2.30;99.90
9209;DHT22;4639;48.862;9.188;2024-01-10T07:12:37;-2.30;99.90
9209;DHT22;4639;48.862;9.188;2024-01-10T07:15:02;-2.30;99.90
9209;DHT22;4639;48.862;9.188;2024-01-10T07:17:28;-2.40;99.90
9209;DHT22;4639;48.862;9.188;2024-01-10T07:19:54;-2.40;99.90
9209;DHT22;4639;48.862;9.188;2024-01-10T07:22:22;-2.50;99.90
9209;DHT22;4639;48.862;9.188;2024-01-10T07:24:48;-2.50;99.90
9209;DHT22;4639;48.862;9.188;2024-01-10T07:27:13;-2.50;99.90
9209;DHT22;4639;48.862;9.188;2024-01-10T07:29:40;-2.50;99.90
9209;DHT22;4639;48.862;9.188;2024-01-10T07:32:06;-2.50;99.90
9209;DHT22;4639;48.862;9.188;2024-01-10T07:34:37;-2.50;99.90
9209;DHT22;4639;48.862;9.188;2024-01-10T07:37:03;-2.60;99.90
9209;DHT22;4639;48.862;9.188;2024-01-10T07:39:29;-2.50;99.90
9209;DHT22;4639;48.862;9.188;2024-01-10T07:41:55;-2.40;99.90
9209;DHT22;4639;48.862;9.188;2024-01-10T07:44:21;-2.40;99.90
9209;DHT22;4639;48.862;9.188;2024-01-10T07:46:47;-2.50;99.90
9209;DHT22;4639;48.862;9.188;2024-01-10T07:49:12;-2.40;99.90
9209;DHT22;4639;48.862;9.188;2024-01-10T07:51:38;-2.30;99.90
9209;DHT22;4639;48.862;9.188;2024-01-10T07:54:03;-2.40;99.90
9209;DHT22;4639;48.862;9.188;2024-01-10T07:56:29;-2.40;99.90
9209;DHT22;4639;48.862;9.188;2024-01-10T07:58:55;-2.40;99.90
9209;DHT22;4639;48.862;9.188;2024-01-10T08:01:21;-2.30;99.90
9209;DHT22;4639;48.862;9.188;2024-01-10T08:03:47;-2.30;99.90
9209;DHT22;4639;48.862;9.188;2024-01-10T08:06:12;-2.30;99.90
9209;DHT22;4639;48.862;9.188;2024-01-10T08:08:39;-2.30;99.90
9209;DHT22;4639;48.862;9.188;2024-01-10T08:11:04;-2.20;99.90
9209;DHT22;4639;48.862;9.188;2024-01-10T08:13:30;-2.10;99.90
9209;DHT22;4639;48.862;9.188;2024-01-10T08:15:56;-2.10;99.90
9209;DHT22;4639;48.862;9.188;2024-01-10T08:18:23;-2.00;99.90
9209;DHT22;4639;48.862;9.188;2024-01-10T08:20:48;-1.90;99.90
9209;DHT22;4639;48.862;9.188;2024-01-10T08:23:14;-1.90;99.90
9209;DHT22;4639;48.862;9.188;2024-01-10T08:25:40;-1.80;99.90
9209;DHT22;4639;48.862;9.188;2024-01-10T08:28:06;-1.70;99.90
9209;DHT22;4639;48.862;9.188;2024-01-10T08:30:32;-1.60;99.90
9209;DHT22;4639;48.862;9.188;2024-01-10T08:32:58;-1.40;99.90
9209;DHT22;4639;48.862;9.188;2024-01-10T08:35:24;-1.20;99.90
9209;DHT22;4639;48.862;9.188;2024-01-10T08:37:50;-0.90;99.90
9209;DHT22;4639;48.862;9.188;2024-01-10T08:40:16;-0.90;99.90
9209;DHT22;4639;48.862;9.188;2024-01-10T08:42:42;-0.80;99.90
9209;DHT22;4639;48.862;9.188;2024-01-10T08:45:09;-0.90;99.90
9209;DHT22;4639;48.862;9.188;2024-01-10T08:47:37;-0.90;99.90
9209;DHT22;4639;48.862;9.188;2024-01-10T08:50:06;-0.90;99.90
9209;DHT22;4639;48.862;9.188;2024-01-10T08:52:34;-0.80;99.90
9209;DHT22;4639;48.862;9.188;2024-01-10T08:55:04;-0.50;99.90
9209;DHT22;4639;48.862;9.188;2024-01-10T08:57:30;-0.10;99.90
9209;DHT22;4639;48.862;9.188;2024-01-10T08:59:55;0.10;99.90
9209;DHT22;4639;48.862;9.188;2024-01-10T09:02:21;0.40;99.90
9209;DHT22;4639;48.862;9.188;2024-01-10T09:04:48;0.70;99.90
9209;DHT22;4639;48.862;9.188;2024-01-10T09:07:14;1.00;99.90
9209;DHT22;4639;48.862;9.188;2024-01-10T09:09:40;1.10;99.90
9209;DHT22;4639;48.862;9.188;2024-01-10T09:12:06;1.30;99.90
9209;DHT22;4639;48.862;9.188;2024-01-10T09:14:31;1.60;99.90
9209;DHT22;4639;48.862;9.188;2024-01-10T09:16:57;1.90;99.90
9209;DHT22;4639;48.862;9.188;2024-01-10T09:19:24;2.10;99.90
9209;DHT22;4639;48.862;9.188;2024-01-10T09:21:49;2.00;99.90
9209;DHT22;4639;48.862;9.188;2024-01-10T09:24:17;1.90;99.90
9209;DHT22;4639;48.862;9.188;2024-01-10T09:26:43;2.10;99.90
9209;DHT22;4639;48.862;9.188;2024-01-10T09:29:09;2.10;99.90
9209;DHT22;4639;48.862;9.188;2024-01-10T09:31:35;2.00;99.90
9209;DHT22;4639;48.862;9.188;2024-01-10T09:34:00;1.80;99.90
9209;DHT22;4639;48.862;9.188;2024-01-10T09:36:26;1.60;99.90
9209;DHT22;4639;48.862;9.188;2024-01-10T09:38:51;1.80;99.90
9209;DHT22;4639;48.862;9.188;2024-01-10T09:41:18;2.10;99.90
9209;DHT22;4639;48.862;9.188;2024-01-10T09:43:44;2.40;99.90
9209;DHT22;4639;48.862;9.188;2024-01-10T09:46:09;2.80;99.90
9209;DHT22;4639;48.862;9.188;2024-01-10T09:48:36;3.10;99.90
9209;DHT22;4639;48.862;9.188;2024-01-10T09:51:01;3.40;99.90
9209;DHT22;4639;48.862;9.188;2024-01-10T09:53:27;3.60;99.90
9209;DHT22;4639;48.862;9.188;2024-01-10T09:55:55;3.60;99.90
9209;DHT22;4639;48.862;9.188;2024-01-10T09:58:25;3.60;99.90
9209;DHT22;4639;48.862;9.188;2024-01-10T10:00:51;3.80;99.90
9209;DHT22;4639;48.862;9.188;2024-01-10T10:03:18;4.00;99.90
9209;DHT22;4639;48.862;9.188;2024-01-10T10:05:44;3.80;99.90
9209;DHT22;4639;48.862;9.188;2024-01-10T10:08:12;3.40;99.90
9209;DHT22;4639;48.862;9.188;2024-01-10T10:10:41;3.10;99.90
9209;DHT22;4639;48.862;9.188;2024-01-10T10:13:10;2.70;99.90
9209;DHT22;4639;48.862;9.188;2024-01-10T10:16:00;2.70;99.90
9209;DHT22;4639;48.862;9.188;2024-01-10T10:18:27;3.00;99.90
9209;DHT22;4639;48.862;9.188;2024-01-10T10:21:13;3.40;99.90
9209;DHT22;4639;48.862;9.188;2024-01-10T10:23:56;3.80;99.90
9209;DHT22;4639;48.862;9.188;2024-01-10T10:26:22;4.10;99.90
9209;DHT22;4639;48.862;9.188;2024-01-10T10:28:50;4.60;99.90
9209;DHT22;4639;48.862;9.188;2024-01-10T10:31:18;4.80;99.90
9209;DHT22;4639;48.862;9.188;2024-01-10T10:33:44;5.10;99.90
9209;DHT22;4639;48.862;9.188;2024-01-10T10:36:10;5.20;99.90
9209;DHT22;4639;48.862;9.188;2024-01-10T10:38:36;5.10;99.90
9209;DHT22;4639;48.862;9.188;2024-01-10T10:41:05;4.90;99.90
9209;DHT22;4639;48.862;9.188;2024-01-10T10:43:35;4.70;99.90
9209;DHT22;4639;48.862;9.188;2024-01-10T10:46:01;4.40;99.90
9209;DHT22;4639;48.862;9.188;2024-01-10T10:48:32;4.50;99.90
9209;DHT22;4639;48.862;9.188;2024-01-10T10:51:32;4.90;99.90
9209;DHT22;4639;48.862;9.188;2024-01-10T10:54:03;5.20;99.90
9209;DHT22;4639;48.862;9.188;2024-01-10T10:56:32;5.40;99.90
9209;DHT22;4639;48.862;9.188;2024-01-10T10:59:00;5.60;99.90
9209;DHT22;4639;48.862;9.188;2024-01-10T11:01:26;5.90;99.90
9209;DHT22;4639;48.862;9.188;2024-01-10T11:03:53;5.90;99.90
9209;DHT22;4639;48.862;9.188;2024-01-10T11:06:21;5.80;99.90
9209;DHT22;4639;48.862;9.188;2024-01-10T11:08:49;5.40;99.90
9209;DHT22;4639;48.862;9.188;2024-01-10T11:24:19;4.20;99.90
9209;DHT22;4639;48.862;9.188;2024-01-10T11:26:45;3.80;99.90
9209;DHT22;4639;48.862;9.188;2024-01-10T11:29:11;3.70;99.90
9209;DHT22;4639;48.862;9.188;2024-01-10T11:31:38;3.80;99.90
9209;DHT22;4639;48.862;9.188;2024-01-10T11:34:04;3.90;99.90
9209;DHT22;4639;48.862;9.188;2024-01-10T11:36:30;4.00;99.90
9209;DHT22;4639;48.862;9.188;2024-01-10T11:39:03;3.90;99.90
9209;DHT22;4639;48.862;9.188;2024-01-10T11:41:36;3.50;99.90
9209;DHT22;4639;48.862;9.188;2024-01-10T11:46:47;2.90;99.90
9209;DHT22;4639;48.862;9.188;2024-01-10T11:49:15;2.80;99.90
9209;DHT22;4639;48.862;9.188;2024-01-10T11:51:45;2.90;99.90
9209;DHT22;4639;48.862;9.188;2024-01-10T11:54:11;3.00;99.90
9209;DHT22;4639;48.862;9.188;2024-01-10T11:56:42;2.90;99.90
9209;DHT22;4639;48.862;9.188;2024-01-10T11:59:15;3.00;99.90
9209;DHT22;4639;48.862;9.188;2024-01-10T12:01:42;3.10;99.90
9209;DHT22;4639;48.862;9.188;2024-01-10T12:04:08;3.40;99.90
9209;DHT22;4639;48.862;9.188;2024-01-10T12:06:35;3.70;99.90
9209;DHT22;4639;48.862;9.188;2024-01-10T12:09:02;3.60;99.90
9209;DHT22;4639;48.862;9.188;2024-01-10T12:11:34;3.30;99.90
9209;DHT22;4639;48.862;9.188;2024-01-10T12:14:01;3.20;99.90
9209;DHT22;4639;48.862;9.188;2024-01-10T12:16:27;3.30;99.90
9209;DHT22;4639;48.862;9.188;2024-01-10T12:18:53;3.50;99.90
9209;DHT22;4639;48.862;9.188;2024-01-10T12:21:18;3.70;99.90
9209;DHT22;4639;48.862;9.188;2024-01-10T12:23:44;4.00;99.90
9209;DHT22;4639;48.862;9.188;2024-01-10T12:26:11;4.20;99.90
9209;DHT22;4639;48.862;9.188;2024-01-10T12:28:40;4.70;99.90
9209;DHT22;4639;48.862;9.188;2024-01-10T12:31:07;4.80;99.90
9209;DHT22;4639;48.862;9.188;2024-01-10T12:33:34;5.00;99.90
9209;DHT22;4639;48.862;9.188;2024-01-10T12:38:33;4.80;99.90
9209;DHT22;4639;48.862;9.188;2024-01-10T12:40:59;4.80;99.90
9209;DHT22;4639;48.862;9.188;2024-01-10T12:43:26;4.90;99.90
9209;DHT22;4639;48.862;9.188;2024-01-10T12:46:12;5.10;99.90
9209;DHT22;4639;48.862;9.188;2024-01-10T12:48:39;5.40;99.90
9209;DHT22;4639;48.862;9.188;2024-01-10T12:51:10;5.40;99.90
9209;DHT22;4639;48.862;9.188;2024-01-10T12:53:37;5.40;99.90
9209;DHT22;4639;48.862;9.188;2024-01-10T12:56:04;5.40;99.90
9209;DHT22;4639;48.862;9.188;2024-01-10T12:58:30;5.40;99.90
9209;DHT22;4639;48.862;9.188;2024-01-10T13:00:56;5.40;99.90
9209;DHT22;4639;48.862;9.188;2024-01-10T13:03:22;5.40;99.90
9209;DHT22;4639;48.862;9.188;2024-01-10T13:05:49;5.50;99.90
9209;DHT22;4639;48.862;9.188;2024-01-10T13:08:14;5.40;99.90
9209;DHT22;4639;48.862;9.188;2024-01-10T13:10:41;5.20;99.90
9209;DHT22;4639;48.862;9.188;2024-01-10T13:13:07;5.20;99.90
9209;DHT22;4639;48.862;9.188;2024-01-10T13:15:33;5.10;99.90
9209;DHT22;4639;48.862;9.188;2024-01-10T13:17:58;5.00;99.90
9209;DHT22;4639;48.862;9.188;2024-01-10T13:20:25;4.90;99.90
9209;DHT22;4639;48.862;9.188;2024-01-10T13:22:51;4.70;99.90
9209;DHT22;4639;48.862;9.188;2024-01-10T13:25:17;4.50;99.90
9209;DHT22;4639;48.862;9.188;2024-01-10T13:27:43;4.40;99.90
9209;DHT22;4639;48.862;9.188;2024-01-10T13:30:09;4.40;99.90
9209;DHT22;4639;48.862;9.188;2024-01-10T13:32:38;4.50;99.90
9209;DHT22;4639;48.862;9.188;2024-01-10T13:35:04;4.60;99.90
9209;DHT22;4639;48.862;9.188;2024-01-10T13:37:30;4.90;99.90
9209;DHT22;4639;48.862;9.188;2024-01-10T13:39:57;5.00;99.90
9209;DHT22;4639;48.862;9.188;2024-01-10T13:42:22;5.00;99.90
9209;DHT22;4639;48.862;9.188;2024-01-10T13:44:49;5.10;99.90
9209;DHT22;4639;48.862;9.188;2024-01-10T13:47:15;5.10;99.90
9209;DHT22;4639;48.862;9.188;2024-01-10T13:49:40;5.20;99.90
9209;DHT22;4639;48.862;9.188;2024-01-10T13:52:07;5.10;99.90
9209;DHT22;4639;48.862;9.188;2024-01-10T13:54:32;5.00;99.90
9209;DHT22;4639;48.862;9.188;2024-01-10T13:56:58;4.90;99.90
9209;DHT22;4639;48.862;9.188;2024-01-10T13:59:23;4.50;99.90
9209;DHT22;4639;48.862;9.188;2024-01-10T14:01:49;4.20;99.90
9209;DHT22;4639;48.862;9.188;2024-01-10T14:04:15;4.00;99.90
9209;DHT22;4639;48.862;9.188;2024-01-10T14:06:40;4.00;99.90
9209;DHT22;4639;48.862;9.188;2024-01-10T14:09:06;3.80;99.90
9209;DHT22;4639;48.862;9.188;2024-01-10T14:11:35;3.80;99.90
9209;DHT22;4639;48.862;9.188;2024-01-10T14:14:00;3.70;99.90
9209;DHT22;4639;48.862;9.188;2024-01-10T14:16:27;3.60;99.90
9209;DHT22;4639;48.862;9.188;2024-01-10T14:18:53;3.60;99.90
9209;DHT22;4639;48.862;9.188;2024-01-10T14:21:21;3.60;99.90
9209;DHT22;4639;48.862;9.188;2024-01-10T14:23:47;3.50;99.90
9209;DHT22;4639;48.862;9.188;2024-01-10T14:26:14;3.40;99.90
9209;DHT22;4639;48.862;9.188;2024-01-10T14:28:40;3.30;99.90
9209;DHT22;4639;48.862;9.188;2024-01-10T14:31:06;3.30;99.90
9209;DHT22;4639;48.862;9.188;2024-01-10T14:33:32;3.20;99.90
9209;DHT22;4639;48.862;9.188;2024-01-10T14:35:59;3.10;99.90
9209;DHT22;4639;48.862;9.188;2024-01-10T14:38:25;3.10;99.90
9209;DHT22;4639;48.862;9.188;2024-01-10T14:40:51;3.00;99.90
9209;DHT22;4639;48.862;9.188;2024-01-10T14:43:17;3.10;99.90
9209;DHT22;4639;48.862;9.188;2024-01-10T14:45:43;3.00;99.90
9209;DHT22;4639;48.862;9.188;2024-01-10T14:48:09;3.00;99.90
9209;DHT22;4639;48.862;9.188;2024-01-10T14:50:34;3.00;99.90
9209;DHT22;4639;48.862;9.188;2024-01-10T14:53:01;3.00;99.90
9209;DHT22;4639;48.862;9.188;2024-01-10T14:55:27;3.00;99.90
9209;DHT22;4639;48.862;9.188;2024-01-10T14:57:54;3.00;99.90
9209;DHT22;4639;48.862;9.188;2024-01-10T15:00:20;3.00;99.90
9209;DHT22;4639;48.862;9.188;2024-01-10T15:02:45;3.00;99.90
9209;DHT22;4639;48.862;9.188;2024-01-10T15:05:12;2.90;99.90
9209;DHT22;4639;48.862;9.188;2024-01-10T15:07:38;2.90;99.90
9209;DHT22;4639;48.862;9.188;2024-01-10T15:10:04;2.90;99.90
9209;DHT22;4639;48.862;9.188;2024-01-10T15:12:30;2.90;99.90
9209;DHT22;4639;48.862;9.188;2024-01-10T15:14:56;2.90;99.90
9209;DHT22;4639;48.862;9.188;2024-01-10T15:17:25;2.80;99.90
9209;DHT22;4639;48.862;9.188;2024-01-10T15:19:51;2.90;99.90
9209;DHT22;4639;48.862;9.188;2024-01-10T15:22:17;2.80;99.90
9209;DHT22;4639;48.862;9.188;2024-01-10T15:24:43;2.60;99.90
9209;DHT22;4639;48.862;9.188;2024-01-10T15:27:09;2.60;99.90
9209;DHT22;4639;48.862;9.188;2024-01-10T15:29:36;2.60;99.90
9209;DHT22;4639;48.862;9.188;2024-01-10T15:32:03;2.60;99.90
9209;DHT22;4639;48.862;9.188;2024-01-10T15:34:29;2.60;99.90
9209;DHT22;4639;48.862;9.188;2024-01-10T15:36:55;2.60;99.90
9209;DHT22;4639;48.862;9.188;2024-01-10T15:39:21;2.60;99.90
9209;DHT22;4639;48.862;9.188;2024-01-10T15:41:47;2.60;99.90
9209;DHT22;4639;48.862;9.188;2024-01-10T15:44:13;2.50;99.90
9209;DHT22;4639;48.862;9.188;2024-01-10T15:46:39;2.40;99.90
9209;DHT22;4639;48.862;9.188;2024-01-10T15:49:04;2.40;99.90
9209;DHT22;4639;48.862;9.188;2024-01-10T15:51:30;2.40;99.90
9209;DHT22;4639;48.862;9.188;2024-01-10T15:53:55;2.40;99.90
9209;DHT22;4639;48.862;9.188;2024-01-10T15:56:25;2.30;99.90
9209;DHT22;4639;48.862;9.188;2024-01-10T15:58:51;2.30;99.90
9209;DHT22;4639;48.862;9.188;2024-01-10T16:01:16;2.20;99.90
9209;DHT22;4639;48.862;9.188;2024-01-10T16:03:42;2.20;99.90
9209;DHT22;4639;48.862;9.188;2024-01-10T16:06:07;2.20;99.90
9209;DHT22;4639;48.862;9.188;2024-01-10T16:08:35;2.10;99.90
9209;DHT22;4639;48.862;9.188;2024-01-10T16:11:01;2.00;99.90
9209;DHT22;4639;48.862;9.188;2024-01-10T16:13:26;1.80;99.90
9209;DHT22;4639;48.862;9.188;2024-01-10T16:15:55;1.80;99.90
9209;DHT22;4639;48.862;9.188;2024-01-10T16:18:24;1.80;99.90
9209;DHT22;4639;48.862;9.188;2024-01-10T16:20:51;1.80;99.90
9209;DHT22;4639;48.862;9.188;2024-01-10T16:23:17;1.80;99.90